Time;durP1;ratioP1;P1;durP2;ratioP2;P2;SDS_P1;SDS_P2;PMS_P1;PMS_P2;Temp;Humidity;BMP_temperature;BMP_pressure;BME280_temperature;BME280_humidity;BME280_pressure;Samples;Min_cycle;Max_cycle;Signal;HPM_P1;HPM_P2
2021/09/07 00:00:33;;;;;;;18.83;14.68;;;;;;;;;;5112792;28;20048;-65
2021/09/07 00:03:19;;;;;;;19.98;15.68;;;;;;;;;;5113005;28;20056;-64
2021/09/07 00:06:04;;;;;;;19.88;16.10;;;;;;;;;;5112998;28;20051;-64
2021/09/07 00:08:49;;;;;;;20.58;15.57;;;;;;;;;;5112886;28;20048;-64
2021/09/07 00:11:35;;;;;;;20.27;16.15;;;;;;;;;;5112578;28;20047;-64
2021/09/07 00:14:20;;;;;;;18.25;14.70;;;;;;;;;;5112680;28;20090;-64
2021/09/07 00:17:06;;;;;;;21.05;16.35;;;;;;;;;;5112723;28;20055;-64
2021/09/07 00:19:51;;;;;;;17.33;14.98;;;;;;;;;;5112737;28;20051;-64
2021/09/07 00:22:36;;;;;;;18.98;15.60;;;;;;;;;;5112797;28;20056;-64
2021/09/07 00:25:22;;;;;;;20.92;15.70;;;;;;;;;;5111472;28;20047;-64
2021/09/07 00:28:07;;;;;;;22.92;17.33;;;;;;;;;;5112517;28;20052;-64
2021/09/07 00:30:52;;;;;;;22.83;17.38;;;;;;;;;;5112652;28;20067;-64
2021/09/07 00:33:38;;;;;;;19.30;15.05;;;;;;;;;;5112190;28;20513;-64
2021/09/07 00:36:23;;;;;;;19.80;15.00;;;;;;;;;;5112410;28;20055;-64
2021/09/07 00:39:10;;;;;;;22.92;16.08;;;;;;;;;;5112529;28;20063;-64
2021/09/07 00:41:55;;;;;;;22.17;16.13;;;;;;;;;;5112641;28;20059;-64
2021/09/07 00:44:40;;;;;;;21.40;16.00;;;;;;;;;;5112023;28;20051;-64
2021/09/07 00:47:26;;;;;;;22.08;16.05;;;;;;;;;;5112351;28;20557;-64
2021/09/07 00:50:11;;;;;;;19.98;14.45;;;;;;;;;;5112313;28;20052;-64
2021/09/07 00:52:57;;;;;;;24.10;16.67;;;;;;;;;;5112225;28;20040;-64
2021/09/07 00:55:44;;;;;;;20.42;16.42;;;;;;;;;;5096979;28;20409;-64
2021/09/07 00:58:30;;;;;;;19.75;17.20;;;;;;;;;;5097097;28;20055;-64
2021/09/07 01:01:15;;;;;;;19.02;16.48;;;;;;;;;;5111939;28;20056;-64
2021/09/07 01:04:01;;;;;;;20.05;16.52;;;;;;;;;;5112050;28;20047;-64
2021/09/07 01:06:49;;;;;;;20.95;17.67;;;;;;;;;;5112273;28;20127;-64
2021/09/07 01:09:36;;;;;;;21.35;17.05;;;;;;;;;;5112130;28;20456;-64
2021/09/07 01:12:24;;;;;;;22.42;17.35;;;;;;;;;;5112301;28;20047;-64
2021/09/07 01:15:10;;;;;;;19.50;17.23;;;;;;;;;;5111990;28;20056;-64
2021/09/07 01:17:55;;;;;;;23.77;17.30;;;;;;;;;;5112039;28;20059;-64
2021/09/07 01:20:41;;;;;;;24.65;18.90;;;;;;;;;;5112157;28;20055;-64
2021/09/07 01:23:26;;;;;;;21.77;17.27;;;;;;;;;;5111841;28;20055;-65
2021/09/07 01:26:12;;;;;;;23.67;18.67;;;;;;;;;;5111969;28;20083;-64
2021/09/07 01:28:57;;;;;;;23.27;18.92;;;;;;;;;;5112227;28;20044;-64
2021/09/07 01:31:43;;;;;;;23.35;18.15;;;;;;;;;;5111998;28;20048;-64
2021/09/07 01:34:28;;;;;;;24.33;19.48;;;;;;;;;;5111640;28;20506;-64
2021/09/07 01:37:14;;;;;;;25.90;17.88;;;;;;;;;;5114533;28;20343;-64
2021/09/07 01:39:59;;;;;;;23.88;19.38;;;;;;;;;;5115666;28;20051;-65
2021/09/07 01:42:44;;;;;;;22.52;18.63;;;;;;;;;;5115615;28;20459;-64
2021/09/07 01:45:30;;;;;;;26.13;18.35;;;;;;;;;;5115440;28;20122;-64
2021/09/07 01:48:16;;;;;;;22.02;18.08;;;;;;;;;;5115571;28;20052;-64
2021/09/07 01:51:01;;;;;;;18.45;16.15;;;;;;;;;;5115409;28;20086;-64
2021/09/07 01:53:46;;;;;;;20.17;15.45;;;;;;;;;;5115284;28;20051;-64
2021/09/07 01:56:31;;;;;;;18.92;15.40;;;;;;;;;;5115587;28;20123;-64
2021/09/07 01:59:17;;;;;;;19.80;16.60;;;;;;;;;;5115317;28;20048;-64
2021/09/07 02:02:02;;;;;;;21.45;17.20;;;;;;;;;;5115023;28;20051;-64
2021/09/07 02:04:48;;;;;;;20.45;16.92;;;;;;;;;;5114975;28;20040;-64
2021/09/07 02:07:33;;;;;;;20.08;13.25;;;;;;;;;;5115137;28;20048;-64
2021/09/07 02:10:20;;;;;;;22.73;17.73;;;;;;;;;;5115006;28;20055;-64
2021/09/07 02:13:05;;;;;;;20.67;18.20;;;;;;;;;;5115175;28;20051;-65
2021/09/07 02:15:50;;;;;;;24.95;18.67;;;;;;;;;;5114969;28;20055;-64
2021/09/07 02:18:35;;;;;;;22.73;18.02;;;;;;;;;;5114958;28;20060;-64
2021/09/07 02:21:21;;;;;;;19.33;16.02;;;;;;;;;;5114758;28;20052;-65
2021/09/07 02:24:07;;;;;;;17.48;15.40;;;;;;;;;;5114433;28;20051;-64
2021/09/07 02:26:53;;;;;;;23.35;16.85;;;;;;;;;;5114717;28;20051;-64
2021/09/07 02:29:39;;;;;;;25.33;19.75;;;;;;;;;;5114663;28;20524;-64
2021/09/07 02:32:24;;;;;;;23.08;17.52;;;;;;;;;;5114739;28;20051;-64
2021/09/07 02:35:11;;;;;;;21.05;16.45;;;;;;;;;;5114369;28;20051;-64
2021/09/07 02:37:56;;;;;;;22.63;17.98;;;;;;;;;;5114637;28;20056;-64
2021/09/07 02:40:41;;;;;;;22.00;17.92;;;;;;;;;;5114349;28;20052;-64
2021/09/07 02:43:28;;;;;;;24.45;19.52;;;;;;;;;;5114174;28;20051;-64
2021/09/07 02:46:14;;;;;;;21.10;18.35;;;;;;;;;;5114762;28;20122;-64
2021/09/07 02:49:00;;;;;;;19.27;16.90;;;;;;;;;;5112733;28;20056;-64
2021/09/07 02:51:47;;;;;;;24.92;17.95;;;;;;;;;;5113028;28;20052;-64
2021/09/07 02:54:34;;;;;;;26.08;19.65;;;;;;;;;;5114163;28;20118;-64
2021/09/07 02:57:19;;;;;;;22.58;17.85;;;;;;;;;;5114259;28;20052;-64
2021/09/07 03:00:06;;;;;;;20.98;17.38;;;;;;;;;;5113846;28;20048;-64
2021/09/07 03:02:52;;;;;;;19.98;16.25;;;;;;;;;;5114668;28;20472;-64
2021/09/07 03:05:37;;;;;;;21.27;16.85;;;;;;;;;;5113775;28;20048;-64
2021/09/07 03:08:22;;;;;;;19.52;16.00;;;;;;;;;;5113883;28;20059;-64
2021/09/07 03:11:08;;;;;;;22.13;17.60;;;;;;;;;;5113966;28;20412;-64
2021/09/07 03:13:54;;;;;;;21.30;17.23;;;;;;;;;;5113592;28;20650;-64
2021/09/07 03:16:39;;;;;;;21.42;17.63;;;;;;;;;;5113765;28;20051;-64
2021/09/07 03:19:25;;;;;;;21.15;16.75;;;;;;;;;;5113692;28;20513;-64
2021/09/07 03:22:11;;;;;;;21.00;16.88;;;;;;;;;;5113642;28;20118;-64
2021/09/07 03:24:58;;;;;;;21.02;18.25;;;;;;;;;;5113211;28;20505;-64
2021/09/07 03:27:43;;;;;;;22.00;17.20;;;;;;;;;;5113721;28;20052;-64
2021/09/07 03:30:29;;;;;;;21.27;16.77;;;;;;;;;;5113517;28;20043;-64
2021/09/07 03:33:17;;;;;;;23.38;18.83;;;;;;;;;;5113450;28;20047;-64
2021/09/07 03:36:02;;;;;;;20.70;18.20;;;;;;;;;;5113561;28;20126;-64
2021/09/07 03:38:48;;;;;;;21.63;18.27;;;;;;;;;;5113472;28;20052;-64
2021/09/07 03:41:33;;;;;;;28.20;18.92;;;;;;;;;;5113276;28;20123;-64
2021/09/07 03:44:19;;;;;;;21.20;18.42;;;;;;;;;;5113061;28;20044;-64
2021/09/07 03:47:05;;;;;;;19.17;16.58;;;;;;;;;;5113268;28;20055;-65
2021/09/07 03:49:51;;;;;;;23.65;17.77;;;;;;;;;;5113123;28;20055;-64
2021/09/07 03:52:37;;;;;;;21.00;16.13;;;;;;;;;;5113310;28;20047;-64
2021/09/07 03:55:23;;;;;;;20.73;17.70;;;;;;;;;;5112936;28;20052;-64
2021/09/07 03:58:09;;;;;;;19.48;17.10;;;;;;;;;;5113007;28;20048;-64
2021/09/07 04:00:55;;;;;;;21.45;17.90;;;;;;;;;;5112368;28;20058;-64
2021/09/07 04:03:40;;;;;;;19.88;16.10;;;;;;;;;;5112074;28;20074;-65
2021/09/07 04:06:27;;;;;;;22.17;17.17;;;;;;;;;;5112110;28;20079;-65
2021/09/07 04:09:13;;;;;;;23.77;18.45;;;;;;;;;;5112041;28;20047;-65
2021/09/07 04:12:00;;;;;;;24.88;18.40;;;;;;;;;;5112058;28;20523;-64
2021/09/07 04:14:46;;;;;;;25.70;18.63;;;;;;;;;;5111767;28;20063;-64
2021/09/07 04:17:32;;;;;;;22.02;16.98;;;;;;;;;;5112188;28;20047;-65
2021/09/07 04:20:17;;;;;;;22.65;17.70;;;;;;;;;;5111976;28;20056;-64
2021/09/07 04:23:02;;;;;;;22.00;17.75;;;;;;;;;;5111942;28;20052;-64
2021/09/07 04:25:48;;;;;;;23.63;18.35;;;;;;;;;;5111433;28;20556;-64
2021/09/07 04:28:34;;;;;;;21.88;18.40;;;;;;;;;;5111965;28;20153;-64
2021/09/07 04:31:19;;;;;;;23.17;18.00;;;;;;;;;;5111747;28;20044;-64
2021/09/07 04:34:04;;;;;;;21.05;17.75;;;;;;;;;;5111612;28;20127;-64
2021/09/07 04:36:50;;;;;;;20.15;17.35;;;;;;;;;;5111818;28;20059;-65
2021/09/07 04:39:35;;;;;;;21.05;17.92;;;;;;;;;;5096295;28;20055;-65
2021/09/07 04:42:20;;;;;;;19.40;16.60;;;;;;;;;;5096080;28;20051;-64
2021/09/07 04:45:06;;;;;;;21.42;16.88;;;;;;;;;;5111432;28;20052;-64
2021/09/07 04:47:51;;;;;;;24.67;17.65;;;;;;;;;;5111624;28;20051;-64
2021/09/07 04:50:38;;;;;;;22.15;18.17;;;;;;;;;;5111306;28;20553;-64
2021/09/07 04:53:23;;;;;;;19.15;15.95;;;;;;;;;;5111581;28;20048;-64
2021/09/07 04:56:09;;;;;;;20.17;17.63;;;;;;;;;;5111545;28;20048;-64
2021/09/07 04:58:54;;;;;;;22.92;17.40;;;;;;;;;;5111341;28;20079;-64
2021/09/07 05:01:39;;;;;;;21.77;17.63;;;;;;;;;;5074081;28;1071831;-65
2021/09/07 05:04:25;;;;;;;20.23;17.75;;;;;;;;;;5111934;28;20056;-64
2021/09/07 05:07:10;;;;;;;21.98;15.93;;;;;;;;;;5112131;28;20115;-64
2021/09/07 05:09:55;;;;;;;24.48;18.90;;;;;;;;;;5112426;28;20471;-65
2021/09/07 05:12:41;;;;;;;25.27;18.58;;;;;;;;;;5115489;28;20043;-65
2021/09/07 05:15:26;;;;;;;20.65;17.70;;;;;;;;;;5115889;28;20463;-65
2021/09/07 05:18:11;;;;;;;22.77;17.98;;;;;;;;;;5100924;28;20052;-64
2021/09/07 05:20:56;;;;;;;22.67;17.67;;;;;;;;;;5115965;28;20122;-65
2021/09/07 05:23:42;;;;;;;21.33;16.75;;;;;;;;;;5115704;28;20051;-64
2021/09/07 05:26:27;;;;;;;27.73;18.30;;;;;;;;;;5115917;28;20044;-64
2021/09/07 05:29:12;;;;;;;22.35;16.75;;;;;;;;;;5116083;28;20048;-65
2021/09/07 05:31:57;;;;;;;20.88;16.73;;;;;;;;;;5115648;28;20047;-65
2021/09/07 05:34:43;;;;;;;22.40;17.17;;;;;;;;;;5115617;28;20071;-65
2021/09/07 05:37:28;;;;;;;24.02;17.33;;;;;;;;;;5111690;28;20497;-64
2021/09/07 05:40:14;;;;;;;21.90;17.35;;;;;;;;;;5109330;28;20122;-65
2021/09/07 05:42:59;;;;;;;20.63;16.70;;;;;;;;;;5106025;28;20048;-64
2021/09/07 05:45:45;;;;;;;23.17;16.45;;;;;;;;;;5105791;28;20118;-64
2021/09/07 05:48:30;;;;;;;23.33;17.23;;;;;;;;;;5096176;28;20452;-64
2021/09/07 05:51:15;;;;;;;22.25;18.02;;;;;;;;;;5108627;28;20040;-64
2021/09/07 05:54:00;;;;;;;23.58;18.15;;;;;;;;;;5104563;28;20044;-64
2021/09/07 05:56:46;;;;;;;21.85;18.77;;;;;;;;;;5105542;28;20119;-64
2021/09/07 05:59:31;;;;;;;24.05;17.95;;;;;;;;;;5102225;28;20056;-64
2021/09/07 06:02:16;;;;;;;25.08;18.85;;;;;;;;;;5101702;28;20047;-64
2021/09/07 06:05:02;;;;;;;22.77;19.02;;;;;;;;;;5094592;28;20048;-64
2021/09/07 06:07:47;;;;;;;24.13;19.23;;;;;;;;;;5094787;28;20052;-64
2021/09/07 06:10:32;;;;;;;21.30;18.67;;;;;;;;;;5094803;28;20118;-64
2021/09/07 06:13:18;;;;;;;21.30;18.27;;;;;;;;;;5094674;28;20056;-64
2021/09/07 06:16:03;;;;;;;23.23;18.83;;;;;;;;;;5094534;28;20052;-64
2021/09/07 06:18:48;;;;;;;25.27;18.33;;;;;;;;;;5094554;28;20048;-64
2021/09/07 06:21:34;;;;;;;19.48;17.40;;;;;;;;;;5111476;28;20051;-64
2021/09/07 06:24:19;;;;;;;28.67;18.60;;;;;;;;;;5113262;28;20051;-64
2021/09/07 06:27:04;;;;;;;23.90;16.95;;;;;;;;;;5114835;28;20052;-64
2021/09/07 06:29:50;;;;;;;21.77;16.80;;;;;;;;;;5114312;28;20047;-64
2021/09/07 06:32:35;;;;;;;21.90;16.33;;;;;;;;;;5114539;28;20391;-65
2021/09/07 06:35:20;;;;;;;26.35;17.17;;;;;;;;;;5114399;28;20047;-64
2021/09/07 06:38:06;;;;;;;24.42;16.58;;;;;;;;;;5111526;28;20052;-64
2021/09/07 06:40:51;;;;;;;22.13;18.00;;;;;;;;;;5101519;28;20048;-64
2021/09/07 06:43:36;;;;;;;21.58;16.83;;;;;;;;;;5103661;28;20127;-64
2021/09/07 06:46:22;;;;;;;23.52;16.23;;;;;;;;;;5101092;28;20414;-64
2021/09/07 06:49:07;;;;;;;29.13;18.48;;;;;;;;;;5102757;28;20122;-64
2021/09/07 06:51:53;;;;;;;26.40;17.05;;;;;;;;;;5114281;28;20383;-64
2021/09/07 06:54:38;;;;;;;33.80;19.75;;;;;;;;;;5113868;28;20493;-64
2021/09/07 06:57:25;;;;;;;24.52;17.95;;;;;;;;;;5098947;28;20051;-64
2021/09/07 07:00:11;;;;;;;32.05;19.30;;;;;;;;;;5113862;28;20694;-64
2021/09/07 07:02:56;;;;;;;32.08;19.25;;;;;;;;;;5114085;28;20082;-64
2021/09/07 07:05:41;;;;;;;37.92;20.40;;;;;;;;;;5113664;28;20047;-64
2021/09/07 07:08:27;;;;;;;26.77;18.70;;;;;;;;;;5113843;28;20118;-64
2021/09/07 07:11:12;;;;;;;29.00;19.13;;;;;;;;;;5113943;28;20052;-64
2021/09/07 07:13:57;;;;;;;24.63;18.33;;;;;;;;;;5113553;28;20055;-64
2021/09/07 07:16:43;;;;;;;25.48;19.40;;;;;;;;;;5096445;28;20445;-64
2021/09/07 07:19:28;;;;;;;37.50;19.73;;;;;;;;;;5101849;28;20060;-64
2021/09/07 07:22:14;;;;;;;30.10;19.85;;;;;;;;;;5093254;28;20055;-64
2021/09/07 07:24:59;;;;;;;26.52;19.15;;;;;;;;;;5093027;28;20135;-64
2021/09/07 07:27:45;;;;;;;24.90;18.58;;;;;;;;;;5093419;28;20047;-64
2021/09/07 07:30:32;;;;;;;29.75;19.05;;;;;;;;;;5106482;28;20055;-64
2021/09/07 07:33:17;;;;;;;25.27;19.05;;;;;;;;;;5113685;28;20072;-64
2021/09/07 07:36:02;;;;;;;21.92;17.67;;;;;;;;;;5093029;28;20441;-64
2021/09/07 07:38:47;;;;;;;25.75;18.63;;;;;;;;;;5104387;28;20051;-64
2021/09/07 07:41:33;;;;;;;24.90;20.00;;;;;;;;;;5113187;28;20071;-64
2021/09/07 07:44:18;;;;;;;23.33;18.08;;;;;;;;;;5109908;28;20126;-64
2021/09/07 07:47:04;;;;;;;21.20;17.52;;;;;;;;;;5105689;28;20043;-64
2021/09/07 07:49:49;;;;;;;20.48;16.67;;;;;;;;;;5096688;28;20048;-64
2021/09/07 07:52:34;;;;;;;23.20;15.77;;;;;;;;;;5092727;28;20498;-64
2021/09/07 07:55:19;;;;;;;20.38;16.50;;;;;;;;;;5092457;28;20051;-64
2021/09/07 07:58:05;;;;;;;23.90;18.08;;;;;;;;;;5092542;28;20568;-64
2021/09/07 08:00:50;;;;;;;19.20;15.75;;;;;;;;;;5092475;28;20056;-64
2021/09/07 08:03:35;;;;;;;20.83;16.02;;;;;;;;;;5092407;28;20051;-64
2021/09/07 08:06:20;;;;;;;18.83;16.60;;;;;;;;;;5092302;28;20048;-64
2021/09/07 08:09:06;;;;;;;20.80;17.10;;;;;;;;;;5092645;28;20048;-64
2021/09/07 08:11:51;;;;;;;21.38;16.45;;;;;;;;;;5093219;28;20417;-64
2021/09/07 08:14:37;;;;;;;16.80;15.02;;;;;;;;;;5091984;28;20506;-64
2021/09/07 08:17:22;;;;;;;20.17;16.48;;;;;;;;;;5092531;28;20043;-64
2021/09/07 08:20:08;;;;;;;20.73;15.15;;;;;;;;;;5092424;28;20060;-64
2021/09/07 08:22:53;;;;;;;20.13;14.85;;;;;;;;;;5092154;28;20490;-64
2021/09/07 08:25:39;;;;;;;19.48;14.73;;;;;;;;;;5092122;28;20052;-64
2021/09/07 08:28:24;;;;;;;19.48;15.57;;;;;;;;;;5092328;28;20052;-65
2021/09/07 08:31:10;;;;;;;19.33;15.90;;;;;;;;;;5092070;28;20506;-65
2021/09/07 08:33:55;;;;;;;15.93;14.00;;;;;;;;;;5091537;28;20044;-65
2021/09/07 08:36:46;;;;;;;20.20;15.80;;;;;;;;;;5096982;28;20044;-65
2021/09/07 08:39:39;;;;;;;19.90;14.95;;;;;;;;;;5102222;28;20047;-65
2021/09/07 08:42:25;;;;;;;20.95;14.40;;;;;;;;;;5107665;28;20059;-65
2021/09/07 08:45:12;;;;;;;17.95;14.40;;;;;;;;;;5097587;28;20044;-65
2021/09/07 08:47:58;;;;;;;17.52;14.18;;;;;;;;;;5108216;28;20051;-65
2021/09/07 08:50:44;;;;;;;15.25;13.40;;;;;;;;;;5099659;28;20123;-66
2021/09/07 08:53:29;;;;;;;18.67;14.80;;;;;;;;;;5107790;28;20052;-65
2021/09/07 08:56:14;;;;;;;18.15;14.93;;;;;;;;;;5106212;28;20068;-66
2021/09/07 08:58:59;;;;;;;19.88;16.20;;;;;;;;;;5097636;28;20076;-65
2021/09/07 09:01:52;;;;;;;17.92;14.00;;;;;;;;;;5115956;22;20043;-63
2021/09/07 09:04:37;;;;;;;;;;;;;;;;;;5116272;28;20052;-63
2021/09/07 09:07:22;;;;;;;16.33;13.88;;;;;;;;;;5100607;28;20006;-63
2021/09/07 09:10:07;;;;;;;20.65;13.63;;;;;;;;;;5116346;28;20389;-64
2021/09/07 09:13:06;;;;;;;21.20;14.15;;;;;;;;;;5098824;28;20044;-63
2021/09/07 09:16:03;;;;;;;19.20;12.80;;;;;;;;;;5106995;28;20083;-64
2021/09/07 09:18:48;;;;;;;13.80;12.30;;;;;;;;;;5111766;28;20056;-62
2021/09/07 09:21:34;;;;;;;16.23;13.18;;;;;;;;;;5115911;28;20126;-62
2021/09/07 09:24:23;;;;;;;14.77;12.63;;;;;;;;;;5115881;28;20051;-62
2021/09/07 09:27:09;;;;;;;16.88;13.30;;;;;;;;;;5115195;28;20043;-65
2021/09/07 09:29:54;;;;;;;15.02;11.68;;;;;;;;;;5098915;28;20052;-63
2021/09/07 09:32:49;;;;;;;16.23;13.52;;;;;;;;;;5086629;28;20574;-63
2021/09/07 09:35:44;;;;;;;13.93;12.52;;;;;;;;;;5101508;28;20048;-63
2021/09/07 09:38:33;;;;;;;16.88;13.52;;;;;;;;;;5095335;28;20052;-63
2021/09/07 09:41:18;;;;;;;14.00;12.50;;;;;;;;;;5095178;28;20051;-63
2021/09/07 09:44:07;;;;;;;15.95;12.48;;;;;;;;;;5079560;28;20056;-63
2021/09/07 09:46:52;;;;;;;14.75;12.38;;;;;;;;;;5095068;28;20391;-63
2021/09/07 09:49:38;;;;;;;17.02;12.10;;;;;;;;;;5094994;28;20123;-62
2021/09/07 09:52:23;;;;;;;13.48;11.60;;;;;;;;;;5097805;28;20052;-63
2021/09/07 09:55:09;;;;;;;13.45;11.55;;;;;;;;;;5096489;28;20484;-62
2021/09/07 09:57:54;;;;;;;14.80;11.60;;;;;;;;;;5094553;28;20051;-62
2021/09/07 10:00:40;;;;;;;13.80;11.60;;;;;;;;;;5079796;28;20048;-62
2021/09/07 10:03:25;;;;;;;12.60;11.30;;;;;;;;;;5089218;28;20051;-63
2021/09/07 10:06:11;;;;;;;16.17;12.43;;;;;;;;;;5115243;28;20444;-63
2021/09/07 10:08:56;;;;;;;14.82;11.88;;;;;;;;;;5115148;28;20069;-63
2021/09/07 10:11:41;;;;;;;14.77;12.20;;;;;;;;;;5115184;28;20048;-63
2021/09/07 10:14:30;;;;;;;12.55;11.23;;;;;;;;;;5110049;28;20044;-63
2021/09/07 10:20:42;;;;;;;13.48;12.07;;;;;;;;;;5089310;28;20096;-62
2021/09/07 10:26:50;;;;;;;12.63;11.32;;;;;;;;;;5074182;28;20441;-63
2021/09/07 10:29:35;;;;;;;15.27;11.32;;;;;;;;;;5074156;28;20049;-63
2021/09/07 10:32:30;;;;;;;15.35;11.60;;;;;;;;;;5073961;28;20095;-63
2021/09/07 10:35:15;;;;;;;14.90;11.77;;;;;;;;;;5074151;28;20056;-63
2021/09/07 10:38:10;;;;;;;12.55;11.15;;;;;;;;;;5074030;28;20044;-63
2021/09/07 10:40:55;;;;;;;11.40;10.27;;;;;;;;;;5073942;28;20052;-63
2021/09/07 10:43:47;;;;;;;13.77;10.45;;;;;;;;;;5073726;28;20056;-62
2021/09/07 10:46:44;;;;;;;15.70;11.38;;;;;;;;;;5073794;28;20048;-63
2021/09/07 10:49:44;;;;;;;14.70;11.30;;;;;;;;;;5073903;28;20049;-63
2021/09/07 10:52:29;;;;;;;12.45;11.15;;;;;;;;;;5073563;28;20561;-63
2021/09/07 10:55:15;;;;;;;13.57;11.55;;;;;;;;;;5073253;28;20056;-63
2021/09/07 10:58:02;;;;;;;13.35;10.50;;;;;;;;;;5073605;28;20083;-63
2021/09/07 11:00:47;;;;;;;13.10;10.80;;;;;;;;;;5059014;28;20052;-63
2021/09/07 11:03:33;;;;;;;14.90;11.10;;;;;;;;;;5058139;28;20512;-62
2021/09/07 11:06:36;;;;;;;12.80;11.50;;;;;;;;;;5073480;28;20092;-63
2021/09/07 11:09:48;;;;;;;14.15;11.15;;;;;;;;;;5072679;28;20080;-63
2021/09/07 11:12:33;;;;;;;14.20;11.05;;;;;;;;;;5073390;28;20052;-63
2021/09/07 11:15:23;;;;;;;14.80;12.38;;;;;;;;;;5073076;28;20048;-63
2021/09/07 11:18:12;;;;;;;15.63;12.38;;;;;;;;;;5073045;28;20052;-63
2021/09/07 11:20:58;;;;;;;21.63;12.85;;;;;;;;;;5073170;28;20052;-63
2021/09/07 11:23:43;;;;;;;13.70;12.10;;;;;;;;;;5072880;28;20056;-63
2021/09/07 11:26:29;;;;;;;12.38;11.10;;;;;;;;;;5072769;28;20123;-63
2021/09/07 11:29:14;;;;;;;16.00;12.07;;;;;;;;;;5073108;28;20285;-62
2021/09/07 11:32:19;;;;;;;12.63;11.07;;;;;;;;;;5072855;28;20053;-63
2021/09/07 11:35:08;;;;;;;15.40;12.50;;;;;;;;;;5072783;28;20056;-63
2021/09/07 11:37:57;;;;;;;12.50;11.20;;;;;;;;;;5072861;28;20048;-63
2021/09/07 11:40:46;;;;;;;12.50;11.20;;;;;;;;;;5072726;28;20056;-63
2021/09/07 11:43:32;;;;;;;14.75;12.70;;;;;;;;;;5072673;28;20060;-63
2021/09/07 11:46:17;;;;;;;13.98;12.30;;;;;;;;;;5072639;28;20102;-63
2021/09/07 11:49:12;;;;;;;15.02;12.15;;;;;;;;;;5072558;28;20056;-63
2021/09/07 11:51:57;;;;;;;13.48;12.07;;;;;;;;;;5072580;28;20044;-63
2021/09/07 11:54:42;;;;;;;13.93;12.35;;;;;;;;;;5057311;28;20048;-63
2021/09/07 11:57:44;;;;;;;12.48;11.18;;;;;;;;;;5072387;28;20127;-63
2021/09/07 12:00:29;;;;;;;13.35;11.98;;;;;;;;;;5072565;28;20053;-63
2021/09/07 12:03:16;;;;;;;13.20;10.43;;;;;;;;;;5072469;28;20063;-63
2021/09/07 12:06:01;;;;;;;17.30;11.98;;;;;;;;;;5072132;28;20094;-63
2021/09/07 12:08:50;;;;;;;14.10;10.52;;;;;;;;;;5072353;28;20049;-63
2021/09/07 12:11:35;;;;;;;13.10;11.82;;;;;;;;;;5072209;28;20056;-62
2021/09/07 12:14:22;;;;;;;13.63;11.00;;;;;;;;;;5071910;28;20054;-63
2021/09/07 12:17:08;;;;;;;15.55;12.20;;;;;;;;;;5072299;28;20052;-63
2021/09/07 12:19:53;;;;;;;15.88;11.50;;;;;;;;;;5072199;28;20048;-63
2021/09/07 12:22:42;;;;;;;19.98;12.57;;;;;;;;;;5071910;28;20123;-63
2021/09/07 12:25:28;;;;;;;13.65;11.73;;;;;;;;;;5071934;28;20057;-63
2021/09/07 12:28:17;;;;;;;13.65;12.30;;;;;;;;;;5072063;28;20056;-63
2021/09/07 12:31:21;;;;;;;13.20;11.88;;;;;;;;;;5071782;28;20481;-63
2021/09/07 12:34:06;;;;;;;14.55;12.57;;;;;;;;;;5071746;28;20502;-63
2021/09/07 12:36:52;;;;;;;17.88;13.50;;;;;;;;;;5071950;28;20060;-63
2021/09/07 12:39:37;;;;;;;14.32;11.65;;;;;;;;;;5072050;28;20048;-63
2021/09/07 12:42:22;;;;;;;13.75;11.18;;;;;;;;;;5071915;28;20053;-63
2021/09/07 12:45:08;;;;;;;14.82;11.98;;;;;;;;;;5071646;28;20048;-63
2021/09/07 12:47:53;;;;;;;13.93;11.85;;;;;;;;;;5072260;28;20045;-63
2021/09/07 12:50:38;;;;;;;15.88;12.35;;;;;;;;;;5071955;28;20044;-63
2021/09/07 12:53:25;;;;;;;14.40;11.65;;;;;;;;;;5071600;28;20553;-64
2021/09/07 12:56:13;;;;;;;19.23;12.18;;;;;;;;;;5071706;28;20045;-63
2021/09/07 12:58:58;;;;;;;13.38;12.05;;;;;;;;;;5071915;28;20040;-63
2021/09/07 13:01:44;;;;;;;14.23;12.15;;;;;;;;;;5071630;28;20395;-63
2021/09/07 13:04:29;;;;;;;16.10;13.27;;;;;;;;;;5071621;28;20124;-63
2021/09/07 13:07:14;;;;;;;14.20;12.10;;;;;;;;;;5071649;28;20120;-62
2021/09/07 13:10:00;;;;;;;15.18;13.57;;;;;;;;;;5071735;28;20045;-64
2021/09/07 13:12:45;;;;;;;16.35;11.68;;;;;;;;;;5071463;28;20418;-63
2021/09/07 13:15:30;;;;;;;14.35;12.90;;;;;;;;;;5071240;28;20504;-63
2021/09/07 13:18:16;;;;;;;13.88;12.40;;;;;;;;;;5071656;28;20064;-63
2021/09/07 13:21:01;;;;;;;17.05;12.00;;;;;;;;;;5071341;28;20123;-63
2021/09/07 13:23:46;;;;;;;12.43;11.15;;;;;;;;;;5071290;28;20391;-63
2021/09/07 13:26:32;;;;;;;16.13;11.88;;;;;;;;;;5071400;28;20057;-63
2021/09/07 13:29:17;;;;;;;13.88;11.05;;;;;;;;;;5071342;28;20064;-63
2021/09/07 13:32:02;;;;;;;14.10;11.80;;;;;;;;;;5071973;28;20052;-63
2021/09/07 13:34:48;;;;;;;12.23;10.40;;;;;;;;;;5074977;28;20388;-63
2021/09/07 13:37:33;;;;;;;12.18;10.93;;;;;;;;;;5074965;28;20127;-63
2021/09/07 13:40:18;;;;;;;12.45;10.95;;;;;;;;;;5075200;28;20057;-63
2021/09/07 13:43:04;;;;;;;12.43;10.68;;;;;;;;;;5074942;28;20052;-63
2021/09/07 13:45:49;;;;;;;13.27;10.27;;;;;;;;;;5074831;28;20052;-63
2021/09/07 13:48:35;;;;;;;13.32;11.60;;;;;;;;;;5075097;28;20052;-63
2021/09/07 13:51:20;;;;;;;12.98;10.52;;;;;;;;;;5074845;28;20123;-63
2021/09/07 13:54:05;;;;;;;14.90;10.20;;;;;;;;;;5074514;28;20422;-63
2021/09/07 13:56:51;;;;;;;13.40;11.95;;;;;;;;;;5074757;28;20052;-63
2021/09/07 13:59:36;;;;;;;12.25;10.90;;;;;;;;;;5074802;28;20128;-63
2021/09/07 14:02:22;;;;;;;14.98;11.98;;;;;;;;;;5074492;28;20056;-63
2021/09/07 14:05:07;;;;;;;14.77;11.57;;;;;;;;;;5074262;28;20499;-63
2021/09/07 14:07:52;;;;;;;13.60;11.30;;;;;;;;;;5074507;28;20091;-63
2021/09/07 14:10:38;;;;;;;16.00;12.05;;;;;;;;;;5074539;28;20066;-63
2021/09/07 14:13:23;;;;;;;13.02;11.70;;;;;;;;;;5074580;28;20045;-63
2021/09/07 14:16:09;;;;;;;13.43;11.45;;;;;;;;;;5074549;28;20123;-63
2021/09/07 14:18:54;;;;;;;18.63;10.27;;;;;;;;;;5074340;28;20421;-63
2021/09/07 14:21:39;;;;;;;12.45;10.32;;;;;;;;;;5074390;28;20083;-63
2021/09/07 14:24:25;;;;;;;11.27;10.18;;;;;;;;;;5074111;28;20064;-63
2021/09/07 14:27:10;;;;;;;12.07;10.82;;;;;;;;;;5074192;28;20052;-64
2021/09/07 14:29:56;;;;;;;22.02;10.00;;;;;;;;;;5074087;28;20506;-64
2021/09/07 14:32:41;;;;;;;13.27;9.63;;;;;;;;;;5074158;28;20094;-64
2021/09/07 14:35:26;;;;;;;9.88;8.90;;;;;;;;;;5073765;28;20044;-63
2021/09/07 14:38:12;;;;;;;10.93;8.73;;;;;;;;;;5074254;28;20057;-63
2021/09/07 14:40:57;;;;;;;11.85;9.75;;;;;;;;;;5074206;28;20052;-63
2021/09/07 14:43:42;;;;;;;13.57;9.20;;;;;;;;;;5072656;28;20061;-64
2021/09/07 14:46:27;;;;;;;11.35;8.98;;;;;;;;;;5073768;28;20119;-64
2021/09/07 14:49:13;;;;;;;10.05;8.55;;;;;;;;;;5073936;28;20048;-63
2021/09/07 14:51:58;;;;;;;10.63;8.95;;;;;;;;;;5073555;28;20510;-63
2021/09/07 14:54:44;;;;;;;11.90;10.13;;;;;;;;;;5073254;28;20434;-63
2021/09/07 14:57:29;;;;;;;12.82;9.55;;;;;;;;;;5073774;28;20048;-63
2021/09/07 15:00:14;;;;;;;12.90;8.85;;;;;;;;;;5073600;28;20127;-64
2021/09/07 15:02:59;;;;;;;12.82;8.88;;;;;;;;;;5119582;22;20048;-66
2021/09/07 15:05:45;;;;;;;10.38;8.70;;;;;;;;;;5113943;28;20475;-66
2021/09/07 15:08:31;;;;;;;9.77;8.75;;;;;;;;;;5114000;28;20047;-66
2021/09/07 15:11:16;;;;;;;9.82;8.38;;;;;;;;;;5113776;28;20047;-66
2021/09/07 15:14:01;;;;;;;9.40;8.40;;;;;;;;;;5112708;28;20508;-66
2021/09/07 15:16:47;;;;;;;8.95;7.65;;;;;;;;;;5097139;28;20052;-66
2021/09/07 15:19:32;;;;;;;9.60;7.13;;;;;;;;;;5093301;28;20056;-66
2021/09/07 15:22:17;;;;;;;10.98;9.95;;;;;;;;;;5093495;28;20056;-66
2021/09/07 15:25:03;;;;;;;11.75;9.63;;;;;;;;;;5101316;28;20127;-66
2021/09/07 15:27:49;;;;;;;10.05;9.10;;;;;;;;;;5100263;28;20493;-66
2021/09/07 15:30:35;;;;;;;9.13;8.23;;;;;;;;;;5113830;28;20047;-66
2021/09/07 15:33:20;;;;;;;10.38;9.27;;;;;;;;;;5113428;28;20056;-66
2021/09/07 15:36:06;;;;;;;10.27;9.23;;;;;;;;;;5113394;28;20118;-66
2021/09/07 15:38:51;;;;;;;10.05;8.07;;;;;;;;;;5093213;28;20464;-66
2021/09/07 15:41:36;;;;;;;11.27;7.63;;;;;;;;;;5093018;28;20130;-66
2021/09/07 15:44:23;;;;;;;10.85;7.72;;;;;;;;;;5092704;28;20047;-66
2021/09/07 15:47:08;;;;;;;9.25;8.35;;;;;;;;;;5092731;28;20044;-66
2021/09/07 15:49:54;;;;;;;9.57;7.03;;;;;;;;;;5092766;28;20436;-67
2021/09/07 15:52:41;;;;;;;10.48;8.23;;;;;;;;;;5092731;28;20048;-67
2021/09/07 15:55:26;;;;;;;9.80;8.48;;;;;;;;;;5092377;28;20047;-67
2021/09/07 15:58:12;;;;;;;10.20;9.18;;;;;;;;;;5092839;28;20134;-66
2021/09/07 16:00:57;;;;;;;11.00;9.30;;;;;;;;;;5092721;28;20126;-66
2021/09/07 16:03:43;;;;;;;14.10;9.93;;;;;;;;;;5092529;28;20409;-66
2021/09/07 16:06:28;;;;;;;12.98;8.38;;;;;;;;;;5092696;28;20056;-66
2021/09/07 16:09:13;;;;;;;11.85;7.95;;;;;;;;;;5092607;28;20052;-67
2021/09/07 16:11:59;;;;;;;10.73;8.30;;;;;;;;;;5092582;28;20056;-66
2021/09/07 16:14:44;;;;;;;9.07;8.27;;;;;;;;;;5092313;28;20056;-67